sensor_id;sensor_type;location;lat;lon;timestamp;P1;durP1;ratioP1;P2;durP2;ratioP2
74793;SDS011;63320;50.768;6.724;2023-07-20T00:00:45;8.80;;;3.40;;
74793;SDS011;63320;50.768;6.724;2023-07-20T00:03:12;6.32;;;2.60;;
74793;SDS011;63320;50.768;6.724;2023-07-20T00:05:38;6.68;;;2.55;;
74793;SDS011;63320;50.768;6.724;2023-07-20T00:08:04;6.53;;;3.15;;
74793;SDS011;63320;50.768;6.724;2023-07-20T00:10:29;6.45;;;2.95;;
74793;SDS011;63320;50.768;6.724;2023-07-20T00:12:54;7.93;;;3.45;;
74793;SDS011;63320;50.768;6.724;2023-07-20T00:15:20;6.75;;;3.17;;
74793;SDS011;63320;50.768;6.724;2023-07-20T00:17:45;8.88;;;2.70;;
74793;SDS011;63320;50.768;6.724;2023-07-20T00:20:12;6.53;;;2.58;;
74793;SDS011;63320;50.768;6.724;2023-07-20T00:22:37;6.75;;;2.80;;
74793;SDS011;63320;50.768;6.724;2023-07-20T00:25:03;7.80;;;3.15;;
74793;SDS011;63320;50.768;6.724;2023-07-20T00:27:29;6.72;;;2.60;;
74793;SDS011;63320;50.768;6.724;2023-07-20T00:29:54;6.35;;;2.78;;
74793;SDS011;63320;50.768;6.724;2023-07-20T00:32:19;7.03;;;3.08;;
74793;SDS011;63320;50.768;6.724;2023-07-20T00:34:45;7.75;;;3.17;;
74793;SDS011;63320;50.768;6.724;2023-07-20T00:37:11;8.13;;;3.10;;
74793;SDS011;63320;50.768;6.724;2023-07-20T00:39:37;6.50;;;3.05;;
74793;SDS011;63320;50.768;6.724;2023-07-20T00:42:02;6.68;;;2.75;;
74793;SDS011;63320;50.768;6.724;2023-07-20T00:44:28;8.27;;;3.08;;
74793;SDS011;63320;50.768;6.724;2023-07-20T00:46:53;9.00;;;2.90;;
74793;SDS011;63320;50.768;6.724;2023-07-20T00:49:18;9.50;;;3.70;;
74793;SDS011;63320;50.768;6.724;2023-07-20T00:51:44;9.00;;;3.47;;
74793;SDS011;63320;50.768;6.724;2023-07-20T00:54:11;7.97;;;3.60;;
74793;SDS011;63320;50.768;6.724;2023-07-20T00:56:36;6.45;;;3.22;;
74793;SDS011;63320;50.768;6.724;2023-07-20T00:59:01;7.63;;;3.53;;
74793;SDS011;63320;50.768;6.724;2023-07-20T01:01:27;9.93;;;3.90;;
74793;SDS011;63320;50.768;6.724;2023-07-20T01:03:52;9.13;;;3.70;;
74793;SDS011;63320;50.768;6.724;2023-07-20T01:06:21;7.75;;;3.38;;
74793;SDS011;63320;50.768;6.724;2023-07-20T01:08:57;8.32;;;2.85;;
74793;SDS011;63320;50.768;6.724;2023-07-20T01:11:35;8.52;;;3.25;;
74793;SDS011;63320;50.768;6.724;2023-07-20T01:14:02;8.43;;;3.22;;
74793;SDS011;63320;50.768;6.724;2023-07-20T01:16:29;8.10;;;3.25;;
74793;SDS011;63320;50.768;6.724;2023-07-20T01:18:54;9.27;;;3.28;;
74793;SDS011;63320;50.768;6.724;2023-07-20T01:21:21;9.68;;;3.65;;
74793;SDS011;63320;50.768;6.724;2023-07-20T01:23:57;8.32;;;3.33;;
74793;SDS011;63320;50.768;6.724;2023-07-20T01:26:52;10.68;;;4.18;;
74793;SDS011;63320;50.768;6.724;2023-07-20T01:29:35;10.40;;;3.47;;
74793;SDS011;63320;50.768;6.724;2023-07-20T01:32:17;7.90;;;2.97;;
74793;SDS011;63320;50.768;6.724;2023-07-20T01:34:47;9.85;;;3.78;;
74793;SDS011;63320;50.768;6.724;2023-07-20T01:37:15;8.38;;;3.85;;
74793;SDS011;63320;50.768;6.724;2023-07-20T01:39:43;8.77;;;3.40;;
74793;SDS011;63320;50.768;6.724;2023-07-20T01:42:08;6.25;;;3.05;;
74793;SDS011;63320;50.768;6.724;2023-07-20T01:44:34;7.05;;;2.80;;
74793;SDS011;63320;50.768;6.724;2023-07-20T01:46:59;9.60;;;3.70;;
74793;SDS011;63320;50.768;6.724;2023-07-20T01:49:26;9.63;;;3.60;;
74793;SDS011;63320;50.768;6.724;2023-07-20T01:51:51;6.78;;;3.10;;
74793;SDS011;63320;50.768;6.724;2023-07-20T01:54:16;7.30;;;3.13;;
74793;SDS011;63320;50.768;6.724;2023-07-20T01:56:42;6.60;;;2.90;;
74793;SDS011;63320;50.768;6.724;2023-07-20T01:59:07;7.63;;;3.28;;
74793;SDS011;63320;50.768;6.724;2023-07-20T02:01:32;9.60;;;3.50;;
74793;SDS011;63320;50.768;6.724;2023-07-20T02:03:58;7.32;;;3.35;;
74793;SDS011;63320;50.768;6.724;2023-07-20T02:06:24;7.00;;;3.25;;
74793;SDS011;63320;50.768;6.724;2023-07-20T02:08:49;9.55;;;3.80;;
74793;SDS011;63320;50.768;6.724;2023-07-20T02:11:15;8.93;;;3.45;;
74793;SDS011;63320;50.768;6.724;2023-07-20T02:13:40;10.30;;;3.75;;
74793;SDS011;63320;50.768;6.724;2023-07-20T02:16:05;8.43;;;3.20;;
74793;SDS011;63320;50.768;6.724;2023-07-20T02:18:31;9.43;;;4.00;;
74793;SDS011;63320;50.768;6.724;2023-07-20T02:20:56;9.82;;;3.63;;
74793;SDS011;63320;50.768;6.724;2023-07-20T02:23:23;11.95;;;4.68;;
74793;SDS011;63320;50.768;6.724;2023-07-20T02:25:48;7.38;;;3.25;;
74793;SDS011;63320;50.768;6.724;2023-07-20T02:28:14;9.50;;;3.78;;
74793;SDS011;63320;50.768;6.724;2023-07-20T02:30:40;9.68;;;4.10;;
74793;SDS011;63320;50.768;6.724;2023-07-20T02:33:05;9.68;;;3.42;;
74793;SDS011;63320;50.768;6.724;2023-07-20T02:35:30;8.43;;;3.40;;
74793;SDS011;63320;50.768;6.724;2023-07-20T02:37:56;7.80;;;3.40;;
74793;SDS011;63320;50.768;6.724;2023-07-20T02:40:22;8.43;;;2.95;;
74793;SDS011;63320;50.768;6.724;2023-07-20T02:42:48;10.60;;;3.63;;
74793;SDS011;63320;50.768;6.724;2023-07-20T02:45:13;11.38;;;3.17;;
74793;SDS011;63320;50.768;6.724;2023-07-20T02:47:39;7.85;;;3.30;;
74793;SDS011;63320;50.768;6.724;2023-07-20T02:50:06;9.77;;;3.50;;
74793;SDS011;63320;50.768;6.724;2023-07-20T02:52:32;8.55;;;3.50;;
74793;SDS011;63320;50.768;6.724;2023-07-20T02:54:58;8.00;;;3.05;;
74793;SDS011;63320;50.768;6.724;2023-07-20T02:57:24;9.43;;;3.38;;
74793;SDS011;63320;50.768;6.724;2023-07-20T02:59:50;7.35;;;2.92;;
74793;SDS011;63320;50.768;6.724;2023-07-20T03:02:15;11.40;;;3.28;;
74793;SDS011;63320;50.768;6.724;2023-07-20T03:04:40;10.15;;;2.85;;
74793;SDS011;63320;50.768;6.724;2023-07-20T03:07:06;9.82;;;3.15;;
74793;SDS011;63320;50.768;6.724;2023-07-20T03:09:31;7.47;;;2.88;;
74793;SDS011;63320;50.768;6.724;2023-07-20T03:11:56;7.80;;;3.17;;
74793;SDS011;63320;50.768;6.724;2023-07-20T03:14:23;8.57;;;3.30;;
74793;SDS011;63320;50.768;6.724;2023-07-20T03:16:49;7.63;;;3.35;;
74793;SDS011;63320;50.768;6.724;2023-07-20T03:19:14;7.35;;;2.83;;
74793;SDS011;63320;50.768;6.724;2023-07-20T03:21:40;7.50;;;2.88;;
74793;SDS011;63320;50.768;6.724;2023-07-20T03:24:05;7.35;;;2.40;;
74793;SDS011;63320;50.768;6.724;2023-07-20T03:26:31;7.72;;;2.53;;
74793;SDS011;63320;50.768;6.724;2023-07-20T03:28:56;10.10;;;2.97;;
74793;SDS011;63320;50.768;6.724;2023-07-20T03:31:23;8.13;;;2.75;;
74793;SDS011;63320;50.768;6.724;2023-07-20T03:33:48;7.68;;;2.90;;
74793;SDS011;63320;50.768;6.724;2023-07-20T03:36:13;9.07;;;3.13;;
74793;SDS011;63320;50.768;6.724;2023-07-20T03:38:39;6.78;;;2.58;;
74793;SDS011;63320;50.768;6.724;2023-07-20T03:41:04;7.97;;;2.40;;
74793;SDS011;63320;50.768;6.724;2023-07-20T03:43:29;7.60;;;2.78;;
74793;SDS011;63320;50.768;6.724;2023-07-20T03:45:55;9.27;;;2.60;;
74793;SDS011;63320;50.768;6.724;2023-07-20T03:48:22;9.05;;;2.80;;
74793;SDS011;63320;50.768;6.724;2023-07-20T03:50:49;7.70;;;2.75;;
74793;SDS011;63320;50.768;6.724;2023-07-20T03:53:16;8.95;;;3.05;;
74793;SDS011;63320;50.768;6.724;2023-07-20T03:55:44;10.60;;;2.70;;
74793;SDS011;63320;50.768;6.724;2023-07-20T03:58:10;6.95;;;2.72;;
74793;SDS011;63320;50.768;6.724;2023-07-20T04:00:35;7.32;;;2.67;;
74793;SDS011;63320;50.768;6.724;2023-07-20T04:03:00;9.65;;;3.28;;
74793;SDS011;63320;50.768;6.724;2023-07-20T04:05:27;8.32;;;3.13;;
74793;SDS011;63320;50.768;6.724;2023-07-20T04:07:52;8.57;;;2.72;;
74793;SDS011;63320;50.768;6.724;2023-07-20T04:10:18;10.50;;;2.90;;
74793;SDS011;63320;50.768;6.724;2023-07-20T04:12:44;8.23;;;2.92;;
74793;SDS011;63320;50.768;6.724;2023-07-20T04:15:09;8.50;;;3.13;;
74793;SDS011;63320;50.768;6.724;2023-07-20T04:17:35;10.00;;;3.28;;
74793;SDS011;63320;50.768;6.724;2023-07-20T04:20:00;10.75;;;3.50;;
74793;SDS011;63320;50.768;6.724;2023-07-20T04:22:27;9.85;;;3.58;;
74793;SDS011;63320;50.768;6.724;2023-07-20T04:24:52;10.52;;;3.80;;
74793;SDS011;63320;50.768;6.724;2023-07-20T04:27:18;9.98;;;3.08;;
74793;SDS011;63320;50.768;6.724;2023-07-20T04:29:43;12.05;;;3.75;;
74793;SDS011;63320;50.768;6.724;2023-07-20T04:32:08;8.38;;;3.63;;
74793;SDS011;63320;50.768;6.724;2023-07-20T04:34:33;8.65;;;4.00;;
74793;SDS011;63320;50.768;6.724;2023-07-20T04:36:59;12.00;;;4.60;;
74793;SDS011;63320;50.768;6.724;2023-07-20T04:39:25;12.27;;;4.63;;
74793;SDS011;63320;50.768;6.724;2023-07-20T04:41:51;13.85;;;5.72;;
74793;SDS011;63320;50.768;6.724;2023-07-20T04:44:16;15.85;;;5.60;;
74793;SDS011;63320;50.768;6.724;2023-07-20T04:46:41;12.57;;;5.50;;
74793;SDS011;63320;50.768;6.724;2023-07-20T04:49:07;12.40;;;5.28;;
74793;SDS011;63320;50.768;6.724;2023-07-20T04:51:32;14.30;;;5.32;;
74793;SDS011;63320;50.768;6.724;2023-07-20T04:53:57;15.45;;;6.07;;
74793;SDS011;63320;50.768;6.724;2023-07-20T04:56:24;14.70;;;6.45;;
74793;SDS011;63320;50.768;6.724;2023-07-20T04:58:50;14.70;;;6.15;;
74793;SDS011;63320;50.768;6.724;2023-07-20T05:01:15;12.43;;;5.57;;
74793;SDS011;63320;50.768;6.724;2023-07-20T05:03:40;11.45;;;5.53;;
74793;SDS011;63320;50.768;6.724;2023-07-20T05:06:06;11.32;;;6.40;;
74793;SDS011;63320;50.768;6.724;2023-07-20T05:08:31;11.90;;;5.80;;
74793;SDS011;63320;50.768;6.724;2023-07-20T05:10:56;13.43;;;5.15;;
74793;SDS011;63320;50.768;6.724;2023-07-20T05:13:23;13.45;;;6.07;;
74793;SDS011;63320;50.768;6.724;2023-07-20T05:15:50;13.73;;;6.15;;
74793;SDS011;63320;50.768;6.724;2023-07-20T05:18:16;14.80;;;6.82;;
74793;SDS011;63320;50.768;6.724;2023-07-20T05:20:41;15.77;;;6.60;;
74793;SDS011;63320;50.768;6.724;2023-07-20T05:23:07;14.13;;;6.28;;
74793;SDS011;63320;50.768;6.724;2023-07-20T05:25:32;13.98;;;5.65;;
74793;SDS011;63320;50.768;6.724;2023-07-20T05:27:57;17.48;;;6.38;;
74793;SDS011;63320;50.768;6.724;2023-07-20T05:30:24;13.35;;;6.28;;
74793;SDS011;63320;50.768;6.724;2023-07-20T05:32:50;13.43;;;6.40;;
74793;SDS011;63320;50.768;6.724;2023-07-20T05:35:16;14.55;;;6.55;;
74793;SDS011;63320;50.768;6.724;2023-07-20T05:37:41;14.57;;;6.32;;
74793;SDS011;63320;50.768;6.724;2023-07-20T05:40:07;13.65;;;7.25;;
74793;SDS011;63320;50.768;6.724;2023-07-20T05:42:33;14.82;;;6.43;;
74793;SDS011;63320;50.768;6.724;2023-07-20T05:44:58;14.52;;;7.07;;
74793;SDS011;63320;50.768;6.724;2023-07-20T05:47:25;13.27;;;6.30;;
74793;SDS011;63320;50.768;6.724;2023-07-20T05:49:50;15.10;;;6.80;;
74793;SDS011;63320;50.768;6.724;2023-07-20T05:52:16;16.88;;;6.32;;
74793;SDS011;63320;50.768;6.724;2023-07-20T05:54:41;12.88;;;6.10;;
74793;SDS011;63320;50.768;6.724;2023-07-20T05:57:07;14.95;;;6.85;;
74793;SDS011;63320;50.768;6.724;2023-07-20T05:59:32;14.60;;;6.47;;
74793;SDS011;63320;50.768;6.724;2023-07-20T06:01:58;14.70;;;6.63;;
74793;SDS011;63320;50.768;6.724;2023-07-20T06:04:24;14.70;;;6.25;;
74793;SDS011;63320;50.768;6.724;2023-07-20T06:06:50;12.30;;;6.20;;
74793;SDS011;63320;50.768;6.724;2023-07-20T06:09:15;12.00;;;6.03;;
74793;SDS011;63320;50.768;6.724;2023-07-20T06:11:40;11.07;;;6.00;;
74793;SDS011;63320;50.768;6.724;2023-07-20T06:14:06;11.63;;;6.40;;
74793;SDS011;63320;50.768;6.724;2023-07-20T06:16:31;11.32;;;5.72;;
74793;SDS011;63320;50.768;6.724;2023-07-20T06:18:58;9.68;;;5.82;;
74793;SDS011;63320;50.768;6.724;2023-07-20T06:21:26;13.90;;;5.57;;
74793;SDS011;63320;50.768;6.724;2023-07-20T06:23:51;11.55;;;6.38;;
74793;SDS011;63320;50.768;6.724;2023-07-20T06:26:16;13.52;;;6.72;;
74793;SDS011;63320;50.768;6.724;2023-07-20T06:28:42;11.68;;;6.53;;
74793;SDS011;63320;50.768;6.724;2023-07-20T06:31:07;15.35;;;6.30;;
74793;SDS011;63320;50.768;6.724;2023-07-20T06:33:33;12.73;;;6.47;;
74793;SDS011;63320;50.768;6.724;2023-07-20T06:35:58;13.57;;;6.25;;
74793;SDS011;63320;50.768;6.724;2023-07-20T06:38:25;10.15;;;6.20;;
74793;SDS011;63320;50.768;6.724;2023-07-20T06:40:50;11.00;;;6.70;;
74793;SDS011;63320;50.768;6.724;2023-07-20T06:43:16;9.95;;;5.57;;
74793;SDS011;63320;50.768;6.724;2023-07-20T06:45:41;13.68;;;5.85;;
74793;SDS011;63320;50.768;6.724;2023-07-20T06:48:07;13.68;;;6.78;;
74793;SDS011;63320;50.768;6.724;2023-07-20T06:50:33;11.68;;;6.20;;
74793;SDS011;63320;50.768;6.724;2023-07-20T06:52:58;13.00;;;6.45;;
74793;SDS011;63320;50.768;6.724;2023-07-20T06:55:25;15.18;;;6.93;;
74793;SDS011;63320;50.768;6.724;2023-07-20T06:57:50;13.55;;;5.70;;
74793;SDS011;63320;50.768;6.724;2023-07-20T07:00:15;11.55;;;6.68;;
74793;SDS011;63320;50.768;6.724;2023-07-20T07:02:41;13.45;;;6.43;;
74793;SDS011;63320;50.768;6.724;2023-07-20T07:05:07;17.42;;;7.65;;
74793;SDS011;63320;50.768;6.724;2023-07-20T07:07:32;15.70;;;7.97;;
74793;SDS011;63320;50.768;6.724;2023-07-20T07:09:58;12.82;;;7.55;;
74793;SDS011;63320;50.768;6.724;2023-07-20T07:12:25;11.82;;;7.07;;
74793;SDS011;63320;50.768;6.724;2023-07-20T07:14:50;13.70;;;6.55;;
74793;SDS011;63320;50.768;6.724;2023-07-20T07:17:15;10.80;;;6.45;;
74793;SDS011;63320;50.768;6.724;2023-07-20T07:19:41;11.77;;;6.03;;
74793;SDS011;63320;50.768;6.724;2023-07-20T07:22:06;11.93;;;6.68;;
74793;SDS011;63320;50.768;6.724;2023-07-20T07:24:31;11.82;;;6.30;;
74793;SDS011;63320;50.768;6.724;2023-07-20T07:26:57;11.25;;;7.00;;
74793;SDS011;63320;50.768;6.724;2023-07-20T07:29:23;10.95;;;5.68;;
74793;SDS011;63320;50.768;6.724;2023-07-20T07:31:49;10.52;;;6.30;;
74793;SDS011;63320;50.768;6.724;2023-07-20T07:34:14;10.77;;;6.05;;
74793;SDS011;63320;50.768;6.724;2023-07-20T07:36:39;10.88;;;6.03;;
74793;SDS011;63320;50.768;6.724;2023-07-20T07:39:05;13.50;;;6.60;;
74793;SDS011;63320;50.768;6.724;2023-07-20T07:41:30;9.90;;;5.85;;
74793;SDS011;63320;50.768;6.724;2023-07-20T07:43:55;11.63;;;6.10;;
74793;SDS011;63320;50.768;6.724;2023-07-20T07:46:22;10.63;;;6.75;;
74793;SDS011;63320;50.768;6.724;2023-07-20T07:48:47;12.48;;;5.55;;
74793;SDS011;63320;50.768;6.724;2023-07-20T07:51:13;12.55;;;5.70;;
74793;SDS011;63320;50.768;6.724;2023-07-20T07:53:38;12.15;;;5.90;;
74793;SDS011;63320;50.768;6.724;2023-07-20T07:56:04;8.85;;;5.18;;
74793;SDS011;63320;50.768;6.724;2023-07-20T07:58:32;7.95;;;4.70;;
74793;SDS011;63320;50.768;6.724;2023-07-20T08:00:57;7.40;;;4.57;;
74793;SDS011;63320;50.768;6.724;2023-07-20T08:03:23;6.95;;;3.50;;
74793;SDS011;63320;50.768;6.724;2023-07-20T08:05:49;8.07;;;4.10;;
74793;SDS011;63320;50.768;6.724;2023-07-20T08:08:14;9.68;;;4.90;;
74793;SDS011;63320;50.768;6.724;2023-07-20T08:10:39;7.78;;;3.90;;
74793;SDS011;63320;50.768;6.724;2023-07-20T08:13:05;7.22;;;3.47;;
74793;SDS011;63320;50.768;6.724;2023-07-20T08:15:30;8.98;;;4.18;;
74793;SDS011;63320;50.768;6.724;2023-07-20T08:17:56;5.85;;;3.42;;
74793;SDS011;63320;50.768;6.724;2023-07-20T08:20:22;7.47;;;3.50;;
74793;SDS011;63320;50.768;6.724;2023-07-20T08:22:47;5.82;;;2.55;;
74793;SDS011;63320;50.768;6.724;2023-07-20T08:25:13;7.32;;;2.30;;
74793;SDS011;63320;50.768;6.724;2023-07-20T08:27:38;7.55;;;2.58;;
74793;SDS011;63320;50.768;6.724;2023-07-20T08:30:04;6.05;;;2.83;;
74793;SDS011;63320;50.768;6.724;2023-07-20T08:32:30;5.07;;;2.13;;
74793;SDS011;63320;50.768;6.724;2023-07-20T08:34:57;6.72;;;2.50;;
74793;SDS011;63320;50.768;6.724;2023-07-20T08:37:24;6.85;;;2.72;;
74793;SDS011;63320;50.768;6.724;2023-07-20T08:39:49;9.27;;;2.72;;
74793;SDS011;63320;50.768;6.724;2023-07-20T08:42:15;6.93;;;2.60;;
74793;SDS011;63320;50.768;6.724;2023-07-20T08:44:42;6.72;;;2.47;;
74793;SDS011;63320;50.768;6.724;2023-07-20T08:47:07;6.07;;;2.20;;
74793;SDS011;63320;50.768;6.724;2023-07-20T08:49:33;8.57;;;2.20;;
74793;SDS011;63320;50.768;6.724;2023-07-20T08:51:59;6.38;;;2.95;;
74793;SDS011;63320;50.768;6.724;2023-07-20T08:54:27;9.00;;;3.70;;
74793;SDS011;63320;50.768;6.724;2023-07-20T08:56:55;7.43;;;3.28;;
74793;SDS011;63320;50.768;6.724;2023-07-20T08:59:22;5.38;;;2.92;;
74793;SDS011;63320;50.768;6.724;2023-07-20T09:01:49;8.02;;;2.83;;
74793;SDS011;63320;50.768;6.724;2023-07-20T09:04:15;6.75;;;2.85;;
74793;SDS011;63320;50.768;6.724;2023-07-20T09:06:41;7.18;;;2.80;;
74793;SDS011;63320;50.768;6.724;2023-07-20T09:09:07;5.53;;;2.78;;
74793;SDS011;63320;50.768;6.724;2023-07-20T09:11:33;5.70;;;2.72;;
74793;SDS011;63320;50.768;6.724;2023-07-20T09:14:02;5.63;;;3.17;;
74793;SDS011;63320;50.768;6.724;2023-07-20T09:16:28;8.07;;;2.80;;
74793;SDS011;63320;50.768;6.724;2023-07-20T09:18:54;8.82;;;2.90;;
74793;SDS011;63320;50.768;6.724;2023-07-20T09:21:22;7.70;;;2.63;;
74793;SDS011;63320;50.768;6.724;2023-07-20T09:23:47;7.30;;;3.63;;
74793;SDS011;63320;50.768;6.724;2023-07-20T09:26:13;6.60;;;2.92;;
74793;SDS011;63320;50.768;6.724;2023-07-20T09:28:43;8.38;;;3.17;;
74793;SDS011;63320;50.768;6.724;2023-07-20T09:31:15;5.63;;;2.55;;
74793;SDS011;63320;50.768;6.724;2023-07-20T09:33:41;5.32;;;2.00;;
74793;SDS011;63320;50.768;6.724;2023-07-20T09:36:06;5.28;;;1.80;;
74793;SDS011;63320;50.768;6.724;2023-07-20T09:38:34;5.07;;;2.20;;
74793;SDS011;63320;50.768;6.724;2023-07-20T09:41:00;4.20;;;1.83;;
74793;SDS011;63320;50.768;6.724;2023-07-20T09:43:28;4.80;;;2.03;;
74793;SDS011;63320;50.768;6.724;2023-07-20T09:45:58;5.30;;;1.73;;
74793;SDS011;63320;50.768;6.724;2023-07-20T09:48:23;7.60;;;1.95;;
74793;SDS011;63320;50.768;6.724;2023-07-20T09:50:49;4.63;;;1.98;;
74793;SDS011;63320;50.768;6.724;2023-07-20T09:53:16;4.35;;;1.83;;
74793;SDS011;63320;50.768;6.724;2023-07-20T09:55:43;6.82;;;1.80;;
74793;SDS011;63320;50.768;6.724;2023-07-20T09:58:09;4.30;;;1.73;;
74793;SDS011;63320;50.768;6.724;2023-07-20T10:00:35;4.28;;;1.70;;
74793;SDS011;63320;50.768;6.724;2023-07-20T10:03:03;5.43;;;1.67;;
74793;SDS011;63320;50.768;6.724;2023-07-20T10:05:28;6.03;;;1.50;;
74793;SDS011;63320;50.768;6.724;2023-07-20T10:07:58;5.35;;;1.83;;
74793;SDS011;63320;50.768;6.724;2023-07-20T10:10:24;4.38;;;1.45;;
74793;SDS011;63320;50.768;6.724;2023-07-20T10:12:50;5.90;;;1.58;;
74793;SDS011;63320;50.768;6.724;2023-07-20T10:15:17;5.45;;;1.50;;
74793;SDS011;63320;50.768;6.724;2023-07-20T10:17:51;4.70;;;1.65;;
74793;SDS011;63320;50.768;6.724;2023-07-20T10:20:24;5.93;;;1.88;;
74793;SDS011;63320;50.768;6.724;2023-07-20T10:22:52;5.32;;;1.88;;
74793;SDS011;63320;50.768;6.724;2023-07-20T10:25:18;7.95;;;2.10;;
74793;SDS011;63320;50.768;6.724;2023-07-20T10:27:47;4.80;;;1.92;;
74793;SDS011;63320;50.768;6.724;2023-07-20T10:30:13;5.75;;;1.95;;
74793;SDS011;63320;50.768;6.724;2023-07-20T10:32:39;5.30;;;2.00;;
74793;SDS011;63320;50.768;6.724;2023-07-20T10:35:11;4.70;;;1.58;;
74793;SDS011;63320;50.768;6.724;2023-07-20T10:37:48;5.72;;;1.83;;
74793;SDS011;63320;50.768;6.724;2023-07-20T10:40:25;5.47;;;1.60;;
74793;SDS011;63320;50.768;6.724;2023-07-20T10:45:32;5.97;;;1.85;;
74793;SDS011;63320;50.768;6.724;2023-07-20T10:47:58;6.88;;;2.00;;
74793;SDS011;63320;50.768;6.724;2023-07-20T10:50:27;4.38;;;1.63;;
74793;SDS011;63320;50.768;6.724;2023-07-20T10:53:05;5.88;;;1.70;;
74793;SDS011;63320;50.768;6.724;2023-07-20T10:55:35;5.70;;;1.90;;
74793;SDS011;63320;50.768;6.724;2023-07-20T10:58:07;5.28;;;1.83;;
74793;SDS011;63320;50.768;6.724;2023-07-20T11:00:33;5.45;;;1.90;;
74793;SDS011;63320;50.768;6.724;2023-07-20T11:02:59;5.25;;;1.83;;
74793;SDS011;63320;50.768;6.724;2023-07-20T11:05:31;6.63;;;2.25;;
74793;SDS011;63320;50.768;6.724;2023-07-20T11:07:58;3.60;;;1.38;;
74793;SDS011;63320;50.768;6.724;2023-07-20T11:10:25;4.32;;;1.60;;
74793;SDS011;63320;50.768;6.724;2023-07-20T11:15:44;4.60;;;1.60;;
74793;SDS011;63320;50.768;6.724;2023-07-20T11:18:13;4.53;;;1.85;;
74793;SDS011;63320;50.768;6.724;2023-07-20T11:20:39;5.45;;;1.90;;
74793;SDS011;63320;50.768;6.724;2023-07-20T11:23:05;6.15;;;1.58;;
74793;SDS011;63320;50.768;6.724;2023-07-20T11:25:37;5.72;;;1.70;;
74793;SDS011;63320;50.768;6.724;2023-07-20T11:28:06;6.75;;;2.00;;
74793;SDS011;63320;50.768;6.724;2023-07-20T11:30:32;5.38;;;1.88;;
74793;SDS011;63320;50.768;6.724;2023-07-20T11:32:58;6.85;;;1.67;;
74793;SDS011;63320;50.768;6.724;2023-07-20T11:35:23;6.95;;;1.90;;
74793;SDS011;63320;50.768;6.724;2023-07-20T11:37:48;5.80;;;2.13;;
74793;SDS011;63320;50.768;6.724;2023-07-20T11:40:14;5.75;;;1.73;;
74793;SDS011;63320;50.768;6.724;2023-07-20T11:42:40;5.75;;;1.55;;
74793;SDS011;63320;50.768;6.724;2023-07-20T11:45:06;6.05;;;1.80;;
74793;SDS011;63320;50.768;6.724;2023-07-20T11:47:32;6.35;;;1.90;;
74793;SDS011;63320;50.768;6.724;2023-07-20T11:49:57;3.78;;;1.70;;
74793;SDS011;63320;50.768;6.724;2023-07-20T11:52:28;4.57;;;1.73;;
74793;SDS011;63320;50.768;6.724;2023-07-20T11:54:54;4.18;;;1.83;;
74793;SDS011;63320;50.768;6.724;2023-07-20T11:57:20;6.10;;;2.10;;
74793;SDS011;63320;50.768;6.724;2023-07-20T12:02:30;5.40;;;2.08;;
74793;SDS011;63320;50.768;6.724;2023-07-20T12:04:56;5.82;;;1.92;;
74793;SDS011;63320;50.768;6.724;2023-07-20T12:07:22;5.00;;;2.22;;
74793;SDS011;63320;50.768;6.724;2023-07-20T12:10:02;5.30;;;1.98;;
74793;SDS011;63320;50.768;6.724;2023-07-20T12:12:28;6.10;;;1.88;;
74793;SDS011;63320;50.768;6.724;2023-07-20T12:15:07;5.35;;;1.70;;
74793;SDS011;63320;50.768;6.724;2023-07-20T12:17:41;3.20;;;1.42;;
74793;SDS011;63320;50.768;6.724;2023-07-20T12:20:07;4.13;;;1.40;;
74793;SDS011;63320;50.768;6.724;2023-07-20T12:22:37;7.93;;;1.38;;
74793;SDS011;63320;50.768;6.724;2023-07-20T12:25:05;4.28;;;1.30;;
74793;SDS011;63320;50.768;6.724;2023-07-20T12:27:30;4.05;;;1.80;;
74793;SDS011;63320;50.768;6.724;2023-07-20T12:29:56;4.18;;;1.50;;
74793;SDS011;63320;50.768;6.724;2023-07-20T12:32:22;3.90;;;1.60;;
74793;SDS011;63320;50.768;6.724;2023-07-20T12:34:48;6.03;;;1.90;;
74793;SDS011;63320;50.768;6.724;2023-07-20T12:37:13;5.15;;;1.42;;
74793;SDS011;63320;50.768;6.724;2023-07-20T12:39:38;4.35;;;1.70;;
74793;SDS011;63320;50.768;6.724;2023-07-20T12:42:04;4.60;;;1.73;;
74793;SDS011;63320;50.768;6.724;2023-07-20T12:44:30;2.90;;;1.30;;
74793;SDS011;63320;50.768;6.724;2023-07-20T12:46:55;3.50;;;1.23;;
74793;SDS011;63320;50.768;6.724;2023-07-20T12:49:22;4.70;;;1.20;;
74793;SDS011;63320;50.768;6.724;2023-07-20T12:51:47;2.05;;;1.00;;
74793;SDS011;63320;50.768;6.724;2023-07-20T12:54:13;3.72;;;1.35;;
74793;SDS011;63320;50.768;6.724;2023-07-20T12:56:38;4.10;;;1.15;;
74793;SDS011;63320;50.768;6.724;2023-07-20T12:59:03;5.05;;;1.40;;
74793;SDS011;63320;50.768;6.724;2023-07-20T13:01:29;4.03;;;1.20;;
74793;SDS011;63320;50.768;6.724;2023-07-20T13:03:54;5.28;;;1.30;;
74793;SDS011;63320;50.768;6.724;2023-07-20T13:06:21;6.82;;;1.45;;
74793;SDS011;63320;50.768;6.724;2023-07-20T13:08:46;2.95;;;1.48;;
74793;SDS011;63320;50.768;6.724;2023-07-20T13:11:11;3.97;;;1.50;;
74793;SDS011;63320;50.768;6.724;2023-07-20T13:13:37;4.78;;;1.60;;
74793;SDS011;63320;50.768;6.724;2023-07-20T13:16:02;3.05;;;1.23;;
74793;SDS011;63320;50.768;6.724;2023-07-20T13:18:27;2.45;;;0.82;;
74793;SDS011;63320;50.768;6.724;2023-07-20T13:20:53;2.95;;;1.20;;
74793;SDS011;63320;50.768;6.724;2023-07-20T13:23:19;5.15;;;1.48;;
74793;SDS011;63320;50.768;6.724;2023-07-20T13:25:45;3.35;;;1.25;;
74793;SDS011;63320;50.768;6.724;2023-07-20T13:28:10;5.55;;;1.30;;
74793;SDS011;63320;50.768;6.724;2023-07-20T13:30:35;3.92;;;1.40;;
74793;SDS011;63320;50.768;6.724;2023-07-20T13:33:01;4.50;;;1.30;;
74793;SDS011;63320;50.768;6.724;2023-07-20T13:35:26;6.63;;;1.23;;
74793;SDS011;63320;50.768;6.724;2023-07-20T13:37:51;4.55;;;1.30;;
74793;SDS011;63320;50.768;6.724;2023-07-20T13:40:18;3.80;;;1.25;;
74793;SDS011;63320;50.768;6.724;2023-07-20T13:42:44;4.32;;;1.30;;
74793;SDS011;63320;50.768;6.724;2023-07-20T13:45:09;4.72;;;1.25;;
74793;SDS011;63320;50.768;6.724;2023-07-20T13:47:34;5.57;;;1.20;;
74793;SDS011;63320;50.768;6.724;2023-07-20T13:50:00;3.65;;;1.40;;
74793;SDS011;63320;50.768;6.724;2023-07-20T13:52:25;3.75;;;1.40;;
74793;SDS011;63320;50.768;6.724;2023-07-20T13:54:50;4.55;;;1.58;;
74793;SDS011;63320;50.768;6.724;2023-07-20T13:57:17;4.53;;;1.42;;
74793;SDS011;63320;50.768;6.724;2023-07-20T13:59:43;5.85;;;1.40;;
74793;SDS011;63320;50.768;6.724;2023-07-20T14:02:09;4.80;;;1.50;;
74793;SDS011;63320;50.768;6.724;2023-07-20T14:04:34;3.13;;;1.30;;
74793;SDS011;63320;50.768;6.724;2023-07-20T14:06:59;4.32;;;1.40;;
74793;SDS011;63320;50.768;6.724;2023-07-20T14:09:25;3.90;;;1.27;;
74793;SDS011;63320;50.768;6.724;2023-07-20T14:11:50;3.40;;;1.45;;
74793;SDS011;63320;50.768;6.724;2023-07-20T14:14:17;4.57;;;1.30;;
74793;SDS011;63320;50.768;6.724;2023-07-20T14:16:42;2.42;;;1.17;;
74793;SDS011;63320;50.768;6.724;2023-07-20T14:19:07;4.13;;;1.30;;
74793;SDS011;63320;50.768;6.724;2023-07-20T14:21:32;3.13;;;1.40;;
74793;SDS011;63320;50.768;6.724;2023-07-20T14:23:58;6.78;;;1.50;;
74793;SDS011;63320;50.768;6.724;2023-07-20T14:26:23;5.28;;;1.80;;
74793;SDS011;63320;50.768;6.724;2023-07-20T14:28:49;6.53;;;1.35;;
74793;SDS011;63320;50.768;6.724;2023-07-20T14:31:16;5.65;;;1.60;;
74793;SDS011;63320;50.768;6.724;2023-07-20T14:33:41;2.85;;;1.20;;
74793;SDS011;63320;50.768;6.724;2023-07-20T14:36:06;5.75;;;1.30;;
74793;SDS011;63320;50.768;6.724;2023-07-20T14:38:33;5.25;;;1.30;;
74793;SDS011;63320;50.768;6.724;2023-07-20T14:40:59;5.55;;;1.52;;
74793;SDS011;63320;50.768;6.724;2023-07-20T14:43:24;3.38;;;1.20;;
74793;SDS011;63320;50.768;6.724;2023-07-20T14:45:49;3.05;;;1.20;;